Time;durP1;ratioP1;P1;durP2;ratioP2;P2;SDS_P1;SDS_P2;PMS_P1;PMS_P2;Temp;Humidity;BMP_temperature;BMP_pressure;BME280_temperature;BME280_humidity;BME280_pressure;Samples;Min_cycle;Max_cycle;Signal;HPM_P1;HPM_P2
2022/10/28 00:01:13;;;;;;;14.98;4.03;;;20.10;58.80;;;;;;5030474;28;20049;-55
2022/10/28 00:03:41;;;;;;;8.32;3.83;;;20.20;58.80;;;;;;5032515;28;20057;-56
2022/10/28 00:06:11;;;;;;;12.18;3.20;;;20.20;58.70;;;;;;5031833;28;20057;-54
2022/10/28 00:08:39;;;;;;;8.32;3.97;;;20.20;58.70;;;;;;5029548;28;20053;-54
2022/10/28 00:11:09;;;;;;;11.77;4.00;;;20.20;58.70;;;;;;5030410;28;20056;-56
2022/10/28 00:13:36;;;;;;;7.78;3.75;;;20.20;58.60;;;;;;5032962;28;20068;-56
2022/10/28 00:16:05;;;;;;;11.82;3.72;;;20.20;58.60;;;;;;5031791;28;20476;-53
2022/10/28 00:18:32;;;;;;;13.23;4.00;;;20.20;58.60;;;;;;5033320;28;20596;-55
2022/10/28 00:21:01;;;;;;;9.73;3.58;;;20.20;58.60;;;;;;5030490;28;20053;-56
2022/10/28 00:23:29;;;;;;;11.38;3.92;;;20.20;58.50;;;;;;5031263;28;20049;-49
2022/10/28 00:26:04;;;;;;;10.93;3.83;;;20.30;58.60;;;;;;5032937;28;20057;-56
2022/10/28 00:28:31;;;;;;;9.38;3.35;;;20.30;58.50;;;;;;5032590;28;20068;-56
2022/10/28 00:31:04;;;;;;;12.18;4.35;;;20.20;58.40;;;;;;5028794;28;20425;-56
2022/10/28 00:33:31;;;;;;;14.20;3.58;;;20.30;58.40;;;;;;5031133;28;20057;-56
2022/10/28 00:36:08;;;;;;;12.98;4.10;;;20.30;58.40;;;;;;5030586;28;20068;-55
2022/10/28 00:38:35;;;;;;;13.18;4.07;;;20.30;58.30;;;;;;5029253;28;20049;-55
2022/10/28 00:41:04;;;;;;;14.63;4.40;;;20.30;58.30;;;;;;5030608;28;20049;-55
2022/10/28 00:43:36;;;;;;;8.23;4.07;;;20.30;58.30;;;;;;5026766;28;20053;-55
2022/10/28 00:46:05;;;;;;;12.52;3.78;;;20.30;58.20;;;;;;5027173;28;20053;-54
2022/10/28 00:48:32;;;;;;;9.45;4.10;;;20.30;58.20;;;;;;5027459;28;20074;-56
2022/10/28 00:51:00;;;;;;;14.15;4.28;;;20.30;58.10;;;;;;5026924;28;20050;-53
2022/10/28 00:53:31;;;;;;;10.30;3.58;;;20.30;58.00;;;;;;5028267;28;20049;-52
2022/10/28 00:56:00;;;;;;;11.95;3.80;;;20.30;58.00;;;;;;5028215;28;20061;-54
2022/10/28 00:58:29;;;;;;;14.63;3.72;;;20.30;57.90;;;;;;5032228;28;20064;-52
2022/10/28 01:00:57;;;;;;;8.48;3.50;;;20.40;57.90;;;;;;5029893;28;20052;-50
2022/10/28 01:03:24;;;;;;;11.18;4.40;;;20.30;57.90;;;;;;5026115;28;20057;-48
2022/10/28 01:05:52;;;;;;;14.80;4.70;;;20.40;57.90;;;;;;5025353;28;20053;-49
2022/10/28 01:08:19;;;;;;;11.10;4.22;;;20.40;57.80;;;;;;5024773;28;20505;-47
2022/10/28 01:11:05;;;;;;;9.85;3.47;;;20.40;57.80;;;;;;5022732;28;20084;-46
2022/10/28 01:13:48;;;;;;;10.43;3.47;;;20.40;57.50;;;;;;5025442;28;20054;-49
2022/10/28 01:16:28;;;;;;;11.15;3.88;;;20.40;57.50;;;;;;5023767;28;20053;-47
2022/10/28 01:19:11;;;;;;;13.23;3.65;;;20.40;57.50;;;;;;5023335;28;20057;-49
2022/10/28 01:22:00;;;;;;;10.15;3.90;;;20.40;57.40;;;;;;5024531;28;20061;-49
2022/10/28 01:24:59;;;;;;;16.02;4.38;;;20.40;57.30;;;;;;5022649;28;20057;-49
2022/10/28 01:27:56;;;;;;;6.50;3.30;;;20.40;57.20;;;;;;5025013;28;20535;-50
2022/10/28 01:30:27;;;;;;;10.30;3.55;;;20.40;57.20;;;;;;5010046;28;20498;-51
2022/10/28 01:33:05;;;;;;;12.43;3.92;;;20.40;57.20;;;;;;5023628;28;20503;-50
2022/10/28 01:35:40;;;;;;;12.18;4.53;;;20.40;57.10;;;;;;5023762;28;20402;-49
2022/10/28 01:38:19;;;;;;;10.43;3.67;;;20.40;57.10;;;;;;5017145;28;20413;-48
2022/10/28 01:40:51;;;;;;;9.27;3.90;;;20.40;57.00;;;;;;5023157;28;20053;-50
2022/10/28 01:43:26;;;;;;;12.10;3.97;;;20.40;57.00;;;;;;5024770;28;20050;-49
2022/10/28 01:46:00;;;;;;;13.20;4.00;;;20.40;57.00;;;;;;5025268;28;20061;-49
2022/10/28 01:48:39;;;;;;;15.52;3.78;;;20.50;57.00;;;;;;5023757;28;20405;-46
2022/10/28 01:51:11;;;;;;;10.07;4.00;;;20.50;56.90;;;;;;5023297;28;20064;-52
2022/10/28 01:53:41;;;;;;;17.67;3.95;;;20.50;56.90;;;;;;5014551;28;20057;-51
2022/10/28 01:56:17;;;;;;;12.35;3.70;;;20.50;56.90;;;;;;5022006;28;20592;-49
2022/10/28 01:58:45;;;;;;;11.98;3.45;;;20.50;56.90;;;;;;5023736;28;20065;-49
2022/10/28 02:01:13;;;;;;;17.20;4.30;;;20.50;56.80;;;;;;5023562;28;20080;-49
2022/10/28 02:03:41;;;;;;;8.27;3.45;;;20.50;56.80;;;;;;5023527;28;20053;-48
2022/10/28 02:06:16;;;;;;;9.40;3.75;;;20.50;56.70;;;;;;5021936;28;20050;-51
2022/10/28 02:08:54;;;;;;;14.07;4.10;;;20.50;56.60;;;;;;5021253;28;20064;-48
2022/10/28 02:11:41;;;;;;;11.93;3.50;;;20.50;56.60;;;;;;5023362;28;20057;-49
2022/10/28 02:14:27;;;;;;;9.30;3.30;;;20.50;56.50;;;;;;5023010;28;21352;-53
2022/10/28 02:17:00;;;;;;;11.32;3.45;;;20.50;56.50;;;;;;5022970;28;20053;-49
2022/10/28 02:19:36;;;;;;;17.23;4.03;;;20.50;56.50;;;;;;5024098;28;20065;-48
2022/10/28 02:22:15;;;;;;;12.30;4.07;;;20.50;56.50;;;;;;5022829;28;20049;-52
2022/10/28 02:24:50;;;;;;;10.40;3.80;;;20.50;56.40;;;;;;5022854;28;20053;-53
2022/10/28 02:27:29;;;;;;;12.20;4.32;;;20.60;56.50;;;;;;5024309;28;20060;-47
2022/10/28 02:30:02;;;;;;;17.52;4.20;;;20.60;56.40;;;;;;5024441;28;20057;-51
2022/10/28 02:32:33;;;;;;;12.70;4.10;;;20.60;56.40;;;;;;4990357;28;20513;-49
2022/10/28 02:35:03;;;;;;;9.68;3.55;;;20.60;56.40;;;;;;5004300;28;20065;-53
2022/10/28 02:37:33;;;;;;;11.35;4.07;;;20.60;56.30;;;;;;5003741;28;20056;-51
2022/10/28 02:40:05;;;;;;;12.75;3.95;;;20.60;56.30;;;;;;5002551;28;20053;-50
2022/10/28 02:42:35;;;;;;;11.30;3.60;;;20.60;56.20;;;;;;5008096;28;20045;-54
2022/10/28 02:45:07;;;;;;;8.77;3.38;;;20.60;56.10;;;;;;5011160;28;20065;-55
2022/10/28 02:47:39;;;;;;;11.63;3.50;;;20.60;56.10;;;;;;5011964;28;20058;-55
2022/10/28 02:50:14;;;;;;;12.02;3.95;;;20.60;56.10;;;;;;5012894;28;20451;-56
2022/10/28 02:52:44;;;;;;;10.20;3.28;;;20.60;56.10;;;;;;5013827;28;20046;-54
2022/10/28 02:55:11;;;;;;;8.05;3.47;;;20.60;56.00;;;;;;5012421;28;20060;-50
2022/10/28 02:57:41;;;;;;;13.07;3.42;;;20.70;56.00;;;;;;5008769;28;20061;-55
2022/10/28 03:00:11;;;;;;;10.82;3.67;;;20.70;56.00;;;;;;5008468;28;20054;-54
2022/10/28 03:02:38;;;;;;;10.43;3.67;;;20.70;56.00;;;;;;5010678;28;20053;-55
2022/10/28 03:05:08;;;;;;;9.48;3.80;;;20.60;55.90;;;;;;5012205;28;20054;-54
2022/10/28 03:07:35;;;;;;;12.32;4.65;;;20.70;56.00;;;;;;5011011;28;20050;-51
2022/10/28 03:10:02;;;;;;;13.55;3.95;;;20.60;55.80;;;;;;5008318;28;20069;-48
2022/10/28 03:12:30;;;;;;;12.43;3.83;;;20.60;55.70;;;;;;5001821;28;20041;-55
2022/10/28 03:14:57;;;;;;;12.27;3.35;;;20.60;55.80;;;;;;5012108;28;20061;-55
2022/10/28 03:17:24;;;;;;;8.75;3.38;;;20.60;55.80;;;;;;5016056;28;20061;-55
2022/10/28 03:19:51;;;;;;;10.18;3.60;;;20.70;55.90;;;;;;5014025;28;20050;-55
2022/10/28 03:22:20;;;;;;;15.45;3.53;;;20.60;55.90;;;;;;5011072;28;20113;-53
2022/10/28 03:24:47;;;;;;;14.25;3.95;;;20.70;55.90;;;;;;5011824;28;20064;-55
2022/10/28 03:27:14;;;;;;;15.27;3.83;;;20.60;55.90;;;;;;5013816;28;20069;-55
2022/10/28 03:29:41;;;;;;;12.15;3.45;;;20.70;56.00;;;;;;5012699;28;20065;-53
2022/10/28 03:32:09;;;;;;;7.18;2.90;;;20.70;56.00;;;;;;5011602;28;20058;-55
2022/10/28 03:34:36;;;;;;;12.55;3.78;;;20.60;55.90;;;;;;5008851;28;20058;-55
2022/10/28 03:37:03;;;;;;;9.75;3.15;;;20.70;55.90;;;;;;5009566;28;20068;-55
2022/10/28 03:39:32;;;;;;;12.35;3.80;;;20.70;55.90;;;;;;5014115;28;20502;-55
2022/10/28 03:41:59;;;;;;;13.73;3.70;;;20.70;56.40;;;;;;5010755;28;20493;-55
2022/10/28 03:44:26;;;;;;;11.30;3.45;;;20.60;55.80;;;;;;5015063;28;20065;-55
2022/10/28 03:46:54;;;;;;;11.40;3.83;;;20.70;55.90;;;;;;5013776;28;20065;-54
2022/10/28 03:49:21;;;;;;;8.02;3.67;;;20.60;55.80;;;;;;5013473;28;20050;-55
2022/10/28 03:51:48;;;;;;;12.68;4.25;;;20.60;55.80;;;;;;5011949;28;20065;-55
2022/10/28 03:54:15;;;;;;;13.88;3.65;;;20.60;55.80;;;;;;5010936;28;20050;-55
2022/10/28 03:56:44;;;;;;;11.40;3.50;;;20.60;55.80;;;;;;5014259;28;20058;-55
2022/10/28 03:59:11;;;;;;;15.75;4.13;;;20.50;55.80;;;;;;5014457;28;20486;-54
2022/10/28 04:01:39;;;;;;;13.35;3.28;;;20.50;55.80;;;;;;5010906;28;20054;-55
2022/10/28 04:04:06;;;;;;;14.30;3.70;;;20.50;55.90;;;;;;5013024;28;20069;-55
2022/10/28 04:06:33;;;;;;;12.25;3.53;;;20.50;55.90;;;;;;5009259;28;20072;-53
2022/10/28 04:09:01;;;;;;;8.70;3.45;;;20.50;55.90;;;;;;5009333;28;20062;-55
2022/10/28 04:11:28;;;;;;;9.68;3.97;;;20.50;55.90;;;;;;5008360;28;20061;-54
2022/10/28 04:13:56;;;;;;;11.15;3.97;;;20.40;55.90;;;;;;5011683;28;20061;-55
2022/10/28 04:16:24;;;;;;;8.63;3.47;;;20.40;55.90;;;;;;5007818;28;20057;-54
2022/10/28 04:18:52;;;;;;;8.75;3.67;;;20.40;56.00;;;;;;5007396;28;20062;-54
2022/10/28 04:21:19;;;;;;;9.05;3.75;;;20.40;56.00;;;;;;5010465;28;20050;-55
2022/10/28 04:23:46;;;;;;;18.42;6.60;;;20.30;56.00;;;;;;5013139;28;20062;-55
2022/10/28 04:26:14;;;;;;;18.58;8.20;;;20.30;56.00;;;;;;5013941;28;20057;-56
2022/10/28 04:28:41;;;;;;;11.25;4.65;;;20.30;56.00;;;;;;5013160;28;20053;-55
2022/10/28 04:31:11;;;;;;;11.65;4.32;;;20.30;56.10;;;;;;5010284;28;20064;-55
2022/10/28 04:33:38;;;;;;;9.63;3.92;;;20.30;56.10;;;;;;5013613;28;20046;-53
2022/10/28 04:36:05;;;;;;;14.10;4.65;;;20.30;56.10;;;;;;5013614;28;20517;-54
2022/10/28 04:38:33;;;;;;;10.93;3.47;;;20.30;56.10;;;;;;5015075;28;20058;-55
2022/10/28 04:41:00;;;;;;;11.45;3.70;;;20.20;56.10;;;;;;5015445;28;20062;-55
2022/10/28 04:43:27;;;;;;;11.52;4.15;;;20.20;56.10;;;;;;5016150;28;20060;-55
2022/10/28 04:45:54;;;;;;;13.77;3.58;;;20.20;56.10;;;;;;5018158;28;20077;-55
2022/10/28 04:48:23;;;;;;;12.20;3.65;;;20.20;56.20;;;;;;5016266;28;20054;-55
2022/10/28 04:50:52;;;;;;;13.23;3.97;;;20.20;56.20;;;;;;5015739;28;20540;-54
2022/10/28 04:53:19;;;;;;;21.30;7.65;;;20.20;56.20;;;;;;5011046;28;20690;-56
2022/10/28 04:55:46;;;;;;;26.02;11.27;;;20.20;56.20;;;;;;5012560;28;20528;-55
2022/10/28 04:58:13;;;;;;;15.60;5.22;;;20.20;56.20;;;;;;5016662;28;20061;-55
2022/10/28 05:00:41;;;;;;;16.08;4.28;;;20.10;56.20;;;;;;5016348;28;20057;-55
2022/10/28 05:03:08;;;;;;;10.50;4.15;;;20.10;56.20;;;;;;5016576;28;20517;-55
2022/10/28 05:05:36;;;;;;;12.60;4.32;;;20.10;56.30;;;;;;5015811;28;20053;-55
2022/10/28 05:08:04;;;;;;;11.15;3.95;;;20.10;56.30;;;;;;5015306;28;20085;-54
2022/10/28 05:10:31;;;;;;;13.80;3.90;;;20.10;56.30;;;;;;5015245;28;20057;-56
2022/10/28 05:12:58;;;;;;;13.70;3.95;;;20.10;56.30;;;;;;5013794;28;20054;-53
2022/10/28 05:15:25;;;;;;;8.85;3.60;;;20.10;56.30;;;;;;5014753;28;20058;-55
2022/10/28 05:17:53;;;;;;;13.32;4.38;;;20.10;56.30;;;;;;5014259;28;20076;-55
2022/10/28 05:20:20;;;;;;;18.95;7.03;;;20.10;56.40;;;;;;5014345;28;20515;-54
2022/10/28 05:22:51;;;;;;;20.27;9.50;;;20.10;56.30;;;;;;5016182;28;20057;-55
2022/10/28 05:25:19;;;;;;;11.75;4.25;;;20.10;56.40;;;;;;5014561;28;20058;-54
2022/10/28 05:27:47;;;;;;;13.50;4.40;;;20.10;56.40;;;;;;5019292;28;20061;-55
2022/10/28 05:30:14;;;;;;;16.10;4.05;;;20.10;56.40;;;;;;5018844;28;20054;-55
2022/10/28 05:32:41;;;;;;;10.30;3.95;;;20.10;56.30;;;;;;5013445;28;20498;-54
2022/10/28 05:35:10;;;;;;;19.45;4.50;;;20.10;56.30;;;;;;5008297;28;20058;-54
2022/10/28 05:37:37;;;;;;;10.15;3.38;;;20.10;56.30;;;;;;5014944;28;20060;-55
2022/10/28 05:40:07;;;;;;;11.32;4.15;;;20.10;56.30;;;;;;5013253;28;20069;-52
2022/10/28 05:42:39;;;;;;;9.95;3.75;;;20.10;56.40;;;;;;5017483;28;20054;-55
2022/10/28 05:45:07;;;;;;;16.77;4.43;;;20.10;56.40;;;;;;5016017;28;20061;-54
2022/10/28 05:47:34;;;;;;;7.55;3.53;;;20.10;56.40;;;;;;5017883;28;20068;-55
2022/10/28 05:50:02;;;;;;;12.95;3.90;;;20.10;56.40;;;;;;5015609;28;20054;-54
2022/10/28 05:52:29;;;;;;;17.17;4.03;;;20.10;56.30;;;;;;5011895;28;20490;-55
2022/10/28 05:54:56;;;;;;;11.77;4.20;;;20.10;56.20;;;;;;5015182;28;20049;-56
2022/10/28 05:57:25;;;;;;;13.90;3.58;;;20.10;56.10;;;;;;5017883;28;20058;-55
2022/10/28 05:59:52;;;;;;;8.90;3.00;;;20.00;56.20;;;;;;5016519;28;20060;-55
2022/10/28 06:02:19;;;;;;;13.07;3.33;;;20.10;56.30;;;;;;5014835;28;20066;-54
2022/10/28 06:04:46;;;;;;;7.45;3.35;;;20.10;56.40;;;;;;5017190;28;20057;-54
2022/10/28 06:07:13;;;;;;;11.27;3.63;;;20.00;56.40;;;;;;5023744;23;20058;-55
2022/10/28 06:09:40;;;;;;;10.55;3.33;;;20.00;56.40;;;;;;5014642;28;20125;-55
2022/10/28 06:12:08;;;;;;;8.55;3.78;;;20.00;56.40;;;;;;5015869;28;20520;-53
2022/10/28 06:14:36;;;;;;;8.90;3.30;;;20.00;56.40;;;;;;5015901;28;20493;-54
2022/10/28 06:17:04;;;;;;;13.75;4.05;;;20.00;56.40;;;;;;5015972;28;20057;-55
2022/10/28 06:19:31;;;;;;;9.55;3.33;;;20.00;56.40;;;;;;5016042;28;20065;-55
2022/10/28 06:21:58;;;;;;;10.55;3.80;;;20.00;56.50;;;;;;5015119;28;20062;-56
2022/10/28 06:24:25;;;;;;;7.32;3.67;;;20.00;56.50;;;;;;5013722;28;20049;-56
2022/10/28 06:26:53;;;;;;;12.50;3.85;;;20.00;56.60;;;;;;5016214;28;20079;-55
2022/10/28 06:29:20;;;;;;;10.95;3.90;;;20.00;56.60;;;;;;5016555;28;20061;-55
2022/10/28 06:31:48;;;;;;;5.05;2.95;;;20.00;56.60;;;;;;5015238;28;20053;-48
2022/10/28 06:34:16;;;;;;;7.45;3.45;;;20.00;56.60;;;;;;5013560;28;20050;-55
2022/10/28 06:36:43;;;;;;;7.75;3.53;;;19.90;56.60;;;;;;5012330;28;20061;-55
2022/10/28 06:39:10;;;;;;;9.52;3.78;;;20.00;56.70;;;;;;5012161;28;20065;-55
2022/10/28 06:41:37;;;;;;;8.55;3.53;;;20.00;56.70;;;;;;5012048;28;20405;-55
2022/10/28 06:44:05;;;;;;;11.10;3.90;;;20.00;56.70;;;;;;5010870;28;20061;-55
2022/10/28 06:46:32;;;;;;;13.05;3.63;;;20.00;56.70;;;;;;5007999;28;20061;-55
2022/10/28 06:49:02;;;;;;;13.52;4.05;;;20.00;56.70;;;;;;5008532;28;20065;-54
2022/10/28 06:51:29;;;;;;;23.25;5.10;;;20.00;56.70;;;;;;5007883;28;20049;-55
2022/10/28 06:53:57;;;;;;;9.32;3.70;;;19.90;56.60;;;;;;5005691;28;20076;-54
2022/10/28 06:56:24;;;;;;;20.77;9.05;;;19.90;56.70;;;;;;5010411;28;20049;-56
2022/10/28 06:58:52;;;;;;;25.13;6.75;;;19.90;56.70;;;;;;5010630;28;20065;-52
2022/10/28 07:01:20;;;;;;;11.88;4.85;;;20.00;56.60;;;;;;5006243;28;20060;-53
2022/10/28 07:03:48;;;;;;;15.15;4.32;;;20.00;56.60;;;;;;5004470;28;20601;-55
2022/10/28 07:06:17;;;;;;;9.13;3.28;;;20.00;56.50;;;;;;5005409;28;20061;-54
2022/10/28 07:08:44;;;;;;;17.98;4.00;;;20.00;56.50;;;;;;5005670;28;20050;-55
2022/10/28 07:11:11;;;;;;;10.15;3.35;;;20.00;56.60;;;;;;5007601;28;20061;-50
2022/10/28 07:13:39;;;;;;;10.82;3.58;;;20.00;56.60;;;;;;5008202;28;20058;-55
2022/10/28 07:16:06;;;;;;;10.18;3.35;;;20.00;56.50;;;;;;5008261;28;20057;-54
2022/10/28 07:18:34;;;;;;;8.45;3.85;;;20.00;56.50;;;;;;5008482;28;20053;-55
2022/10/28 07:21:01;;;;;;;11.55;3.90;;;20.10;56.50;;;;;;5007199;28;20073;-55
2022/10/28 07:23:31;;;;;;;18.45;5.40;;;20.10;56.40;;;;;;5003547;28;20056;-55
2022/10/28 07:25:59;;;;;;;11.77;3.72;;;20.10;56.40;;;;;;5003704;28;20057;-55
2022/10/28 07:28:27;;;;;;;14.75;4.20;;;20.10;56.30;;;;;;5008782;28;20062;-55
2022/10/28 07:30:54;;;;;;;10.38;3.85;;;20.10;56.30;;;;;;5007720;28;20421;-51
2022/10/28 07:33:21;;;;;;;14.27;3.30;;;20.20;56.80;;;;;;5007544;28;20421;-54
2022/10/28 07:35:49;;;;;;;13.98;4.03;;;20.20;56.30;;;;;;5008476;28;20065;-54
2022/10/28 07:38:16;;;;;;;9.52;3.53;;;20.20;56.20;;;;;;5008733;28;20069;-54
2022/10/28 07:40:44;;;;;;;10.73;3.67;;;20.20;56.20;;;;;;5007961;28;20064;-55
2022/10/28 07:43:11;;;;;;;11.07;3.90;;;20.30;56.20;;;;;;5007357;28;20064;-51
2022/10/28 07:45:39;;;;;;;18.70;4.30;;;20.30;56.20;;;;;;5009217;28;20486;-54
2022/10/28 07:48:07;;;;;;;16.52;4.05;;;20.30;56.10;;;;;;5011014;28;20057;-49
2022/10/28 07:50:34;;;;;;;15.02;3.97;;;20.30;55.90;;;;;;5008684;28;20054;-55
2022/10/28 07:53:01;;;;;;;17.25;4.30;;;20.40;56.10;;;;;;5010374;28;20073;-52
2022/10/28 07:55:28;;;;;;;18.52;4.65;;;20.40;56.10;;;;;;5007670;28;20533;-52
2022/10/28 07:57:58;;;;;;;12.35;4.63;;;20.40;55.90;;;;;;5007990;28;20058;-51
2022/10/28 08:00:25;;;;;;;12.30;4.20;;;20.40;55.80;;;;;;5006933;28;20064;-54
2022/10/28 08:02:52;;;;;;;13.45;3.58;;;20.50;55.90;;;;;;5008527;28;20518;-54
2022/10/28 08:05:19;;;;;;;14.50;4.18;;;20.50;55.90;;;;;;5006532;28;20441;-51
2022/10/28 08:07:46;;;;;;;9.55;3.65;;;20.50;55.90;;;;;;5025654;28;20053;-55
2022/10/28 08:10:14;;;;;;;10.13;3.35;;;20.60;55.90;;;;;;5022177;28;20504;-55
2022/10/28 08:12:41;;;;;;;7.95;3.58;;;20.60;55.90;;;;;;5031865;28;20060;-51
2022/10/28 08:15:11;;;;;;;11.32;3.97;;;20.60;55.80;;;;;;5024967;28;20057;-52
2022/10/28 08:17:38;;;;;;;18.73;3.88;;;20.60;55.70;;;;;;5035405;28;20413;-55
2022/10/28 08:20:06;;;;;;;10.93;3.63;;;20.70;55.70;;;;;;5033645;28;20076;-55
2022/10/28 08:22:33;;;;;;;11.75;3.85;;;20.70;55.70;;;;;;5030912;28;20600;-55
2022/10/28 08:25:00;;;;;;;10.68;3.50;;;20.70;55.60;;;;;;5032127;28;20058;-54
2022/10/28 08:27:28;;;;;;;13.63;3.30;;;20.80;55.70;;;;;;5033940;28;20058;-55
2022/10/28 08:29:55;;;;;;;9.48;3.53;;;20.80;55.80;;;;;;5034851;28;20049;-53
2022/10/28 08:32:23;;;;;;;10.48;3.58;;;20.80;55.80;;;;;;5024838;28;20057;-55
2022/10/28 08:34:51;;;;;;;14.45;3.33;;;20.90;55.70;;;;;;5028923;28;20420;-55
2022/10/28 08:37:18;;;;;;;13.10;3.58;;;20.90;55.60;;;;;;5034629;28;20064;-54
2022/10/28 08:39:45;;;;;;;11.95;3.53;;;20.90;55.60;;;;;;5034767;28;20064;-55
2022/10/28 08:42:29;;;;;;;11.77;3.17;;;21.00;55.60;;;;;;5029051;28;20057;-55
2022/10/28 08:45:07;;;;;;;14.13;3.33;;;21.10;55.40;;;;;;5032449;28;20604;-54
2022/10/28 08:47:42;;;;;;;12.38;3.85;;;21.10;55.40;;;;;;5032936;28;20512;-54
2022/10/28 08:50:12;;;;;;;;;;;21.10;55.30;;;;;;5024295;28;20533;-55
2022/10/28 08:52:45;;;;;;;10.63;3.75;;;21.10;55.30;;;;;;5034069;28;19921;-55
2022/10/28 08:55:16;;;;;;;11.95;3.22;;;21.20;55.10;;;;;;5030317;28;20064;-55
2022/10/28 08:57:49;;;;;;;18.92;3.60;;;21.20;54.90;;;;;;5029416;28;20132;-55
2022/10/28 09:00:22;;;;;;;11.32;3.47;;;21.20;54.90;;;;;;5030437;28;20057;-55
2022/10/28 09:03:01;;;;;;;12.63;3.85;;;21.20;54.90;;;;;;5030165;28;20524;-56
2022/10/28 09:05:28;;;;;;;9.80;3.45;;;21.30;54.90;;;;;;5046160;23;20054;-54
2022/10/28 09:07:57;;;;;;;15.13;3.95;;;21.30;54.90;;;;;;4995346;28;20063;-56
2022/10/28 09:10:41;;;;;;;15.40;4.03;;;21.30;54.80;;;;;;4993267;28;20066;-52
2022/10/28 09:13:17;;;;;;;10.90;3.67;;;21.30;54.70;;;;;;4995240;28;20062;-56
2022/10/28 09:15:49;;;;;;;12.18;3.72;;;21.40;54.90;;;;;;4991834;28;20089;-55
2022/10/28 09:18:21;;;;;;;18.83;4.00;;;21.40;54.70;;;;;;4994663;28;20057;-55
2022/10/28 09:20:53;;;;;;;11.98;4.10;;;21.40;54.50;;;;;;4991692;28;20085;-56
2022/10/28 09:23:23;;;;;;;13.23;3.60;;;21.50;54.50;;;;;;4992242;28;20059;-51
2022/10/28 09:26:04;;;;;;;9.75;3.78;;;21.50;54.50;;;;;;4992377;28;20252;-54
2022/10/28 09:28:46;;;;;;;19.30;4.13;;;21.50;54.50;;;;;;4990975;28;20442;-56
2022/10/28 09:31:20;;;;;;;12.10;4.07;;;21.50;54.60;;;;;;4992910;28;20054;-55
2022/10/28 09:33:58;;;;;;;22.65;4.30;;;21.60;54.60;;;;;;4989154;28;20042;-52
2022/10/28 09:36:31;;;;;;;10.27;3.78;;;21.60;54.60;;;;;;4996177;28;20054;-55
2022/10/28 09:39:01;;;;;;;10.18;3.60;;;21.70;54.40;;;;;;4993899;28;20065;-52
2022/10/28 09:41:33;;;;;;;19.02;4.47;;;21.70;54.30;;;;;;4992774;28;20062;-57
2022/10/28 09:44:11;;;;;;;18.23;4.60;;;21.80;54.60;;;;;;4993291;28;20070;-55
2022/10/28 09:46:39;;;;;;;11.65;3.45;;;21.80;54.70;;;;;;4993308;28;20066;-55
2022/10/28 09:49:14;;;;;;;18.35;3.95;;;21.90;54.60;;;;;;4991315;28;20054;-52
2022/10/28 09:51:48;;;;;;;16.55;3.92;;;21.90;54.40;;;;;;4989714;28;20060;-46
2022/10/28 09:54:15;;;;;;;11.15;3.30;;;22.00;54.50;;;;;;4986331;28;20402;-55
2022/10/28 09:56:42;;;;;;;17.10;4.78;;;22.00;54.50;;;;;;4990522;28;20065;-54
2022/10/28 09:59:15;;;;;;;18.02;4.38;;;22.00;54.50;;;;;;4990571;28;20054;-54
2022/10/28 10:01:44;;;;;;;14.55;3.85;;;22.10;54.30;;;;;;4988329;28;20051;-52
2022/10/28 10:04:18;;;;;;;10.30;3.45;;;22.10;54.20;;;;;;4987443;28;20062;-52
2022/10/28 10:06:46;;;;;;;;;;;22.20;54.10;;;;;;5010643;23;20050;-48
2022/10/28 10:09:19;;;;;;;21.17;4.45;;;22.30;54.30;;;;;;5010823;28;20365;-53
2022/10/28 10:11:49;;;;;;;8.48;3.65;;;22.40;53.70;;;;;;5010403;28;20054;-55
2022/10/28 10:14:20;;;;;;;13.38;3.55;;;22.40;53.80;;;;;;5008996;28;20050;-52
2022/10/28 10:16:52;;;;;;;13.48;3.65;;;22.40;53.70;;;;;;5006270;28;20050;-55
2022/10/28 10:19:21;;;;;;;14.90;3.90;;;22.50;53.80;;;;;;5009765;28;20058;-56
2022/10/28 10:21:50;;;;;;;18.48;3.88;;;22.50;53.70;;;;;;5010966;28;20054;-56
2022/10/28 10:24:27;;;;;;;9.73;3.08;;;22.50;53.60;;;;;;5009177;28;20058;-52
2022/10/28 10:26:54;;;;;;;6.78;3.20;;;22.50;53.30;;;;;;5013287;28;20107;-55
2022/10/28 10:29:22;;;;;;;13.73;3.80;;;22.60;53.60;;;;;;5010033;28;20057;-55
2022/10/28 10:32:08;;;;;;;16.50;3.90;;;22.60;53.40;;;;;;5007344;28;20375;-55
2022/10/28 10:34:37;;;;;;;10.43;3.83;;;22.70;53.30;;;;;;5011412;28;20050;-52
2022/10/28 10:37:04;;;;;;;14.55;3.65;;;22.70;53.40;;;;;;5014271;28;20062;-53
2022/10/28 10:39:36;;;;;;;16.92;3.88;;;22.80;53.40;;;;;;5011859;28;20057;-55
2022/10/28 10:42:15;;;;;;;11.25;3.50;;;22.80;53.30;;;;;;5012209;28;20057;-56
2022/10/28 10:44:43;;;;;;;19.80;3.85;;;22.80;53.20;;;;;;5013266;28;20061;-56
2022/10/28 10:47:21;;;;;;;16.17;3.92;;;22.90;53.30;;;;;;5012555;28;20062;-56
2022/10/28 10:49:50;;;;;;;13.10;3.67;;;22.90;53.20;;;;;;5012632;28;20054;-54
2022/10/28 10:52:21;;;;;;;12.52;3.72;;;22.90;53.20;;;;;;5012534;28;20050;-56
2022/10/28 10:55:01;;;;;;;15.23;4.18;;;22.90;53.10;;;;;;5011763;28;20062;-55
2022/10/28 10:57:28;;;;;;;14.45;3.58;;;23.00;53.00;;;;;;5014856;28;20058;-56
2022/10/28 10:59:57;;;;;;;10.85;3.38;;;23.00;53.00;;;;;;5011206;28;20046;-55
2022/10/28 11:02:27;;;;;;;20.25;6.35;;;23.10;53.10;;;;;;5015071;28;20064;-56
2022/10/28 11:04:58;;;;;;;14.82;4.32;;;23.10;53.00;;;;;;5013631;28;20053;-56
2022/10/28 11:07:27;;;;;;;10.55;3.40;;;23.10;52.90;;;;;;5020091;23;20070;-56
2022/10/28 11:09:55;;;;;;;14.13;3.25;;;23.10;53.00;;;;;;5013467;28;20065;-55
2022/10/28 11:12:27;;;;;;;15.32;4.10;;;23.10;53.10;;;;;;5005299;28;20058;-55
2022/10/28 11:14:57;;;;;;;12.18;3.70;;;23.10;53.00;;;;;;5006366;28;20084;-56
2022/10/28 11:17:26;;;;;;;19.25;4.28;;;23.20;53.00;;;;;;5013372;28;20061;-54
2022/10/28 11:19:58;;;;;;;17.17;4.85;;;23.20;52.90;;;;;;5005374;28;20498;-55
2022/10/28 11:22:42;;;;;;;13.27;3.58;;;23.30;52.80;;;;;;5012051;28;20508;-54
2022/10/28 11:25:35;;;;;;;14.30;4.30;;;23.30;52.80;;;;;;5003985;28;20058;-51
2022/10/28 11:28:26;;;;;;;14.85;3.50;;;23.30;52.70;;;;;;5002735;28;20054;-57
2022/10/28 11:31:03;;;;;;;17.73;3.78;;;23.30;52.50;;;;;;5004577;28;20053;-53
2022/10/28 11:33:39;;;;;;;14.57;3.85;;;23.40;52.40;;;;;;5006430;28;20054;-55
2022/10/28 11:36:25;;;;;;;16.50;3.55;;;23.50;52.30;;;;;;4999871;28;20053;-55
2022/10/28 11:39:11;;;;;;;17.90;3.92;;;23.50;52.20;;;;;;5010962;28;20534;-49
2022/10/28 11:41:49;;;;;;;15.13;3.85;;;23.60;51.90;;;;;;5013398;28;20062;-56
2022/10/28 11:44:28;;;;;;;12.05;3.22;;;23.60;51.90;;;;;;5010231;28;20490;-56
2022/10/28 11:47:03;;;;;;;12.60;3.60;;;23.70;51.70;;;;;;5004103;28;20061;-55
2022/10/28 11:50:07;;;;;;;17.27;4.50;;;23.70;51.50;;;;;;5013675;28;20064;-55
2022/10/28 11:52:51;;;;;;;12.43;3.47;;;23.80;51.40;;;;;;5004887;28;20528;-55
2022/10/28 11:55:30;;;;;;;12.57;4.10;;;23.80;51.00;;;;;;5007717;28;20054;-57
2022/10/28 11:58:09;;;;;;;11.05;3.70;;;23.80;50.70;;;;;;5007850;28;20458;-48
2022/10/28 12:01:00;;;;;;;18.67;3.67;;;23.80;50.60;;;;;;5011970;28;20058;-57
2022/10/28 12:04:03;;;;;;;10.70;2.92;;;23.90;50.50;;;;;;5005850;28;21510;-56
2022/10/28 12:06:41;;;;;;;10.75;3.80;;;23.90;50.70;;;;;;5004718;23;20061;-57
2022/10/28 12:09:21;;;;;;;13.13;3.63;;;23.90;50.40;;;;;;5010240;28;20054;-54
2022/10/28 12:12:04;;;;;;;18.50;3.63;;;24.00;50.40;;;;;;5011320;28;20057;-57
2022/10/28 12:14:43;;;;;;;10.30;3.50;;;24.00;50.40;;;;;;5013148;28;20057;-56
2022/10/28 12:17:17;;;;;;;19.80;3.85;;;24.00;50.30;;;;;;5013720;28;20045;-54
2022/10/28 12:19:48;;;;;;;22.83;3.95;;;24.00;50.20;;;;;;5009338;28;20539;-57
2022/10/28 12:22:22;;;;;;;13.32;3.30;;;24.00;50.20;;;;;;5011198;28;20061;-56
2022/10/28 12:24:52;;;;;;;19.20;4.07;;;24.00;50.10;;;;;;5011784;28;20062;-57
2022/10/28 12:27:25;;;;;;;15.23;3.17;;;24.10;50.20;;;;;;5012759;28;20046;-55
2022/10/28 12:29:55;;;;;;;14.40;4.15;;;24.10;49.80;;;;;;5014139;28;20054;-55
2022/10/28 12:32:27;;;;;;;29.33;4.18;;;24.10;49.80;;;;;;5014051;28;20057;-55
2022/10/28 12:35:01;;;;;;;15.95;3.20;;;24.20;50.00;;;;;;5014622;28;20068;-55
2022/10/28 12:37:33;;;;;;;18.27;4.22;;;24.20;49.80;;;;;;5011342;28;20050;-54
2022/10/28 12:40:12;;;;;;;13.45;3.67;;;24.20;49.60;;;;;;5010618;28;20050;-55
2022/10/28 12:42:43;;;;;;;16.02;3.75;;;24.30;49.70;;;;;;5011947;28;20076;-56
2022/10/28 12:45:14;;;;;;;16.00;3.80;;;24.30;49.70;;;;;;5009966;28;20050;-55
2022/10/28 12:47:46;;;;;;;12.95;3.58;;;24.30;49.70;;;;;;5012878;28;20034;-53
2022/10/28 12:50:20;;;;;;;11.25;3.20;;;24.30;49.50;;;;;;5007548;28;20057;-55
2022/10/28 12:52:53;;;;;;;;;;;24.30;49.60;;;;;;5007666;28;20054;-55
2022/10/28 12:55:33;;;;;;;13.02;3.63;;;24.40;49.60;;;;;;5011462;28;19921;-55
2022/10/28 12:58:05;;;;;;;10.88;3.38;;;24.40;49.30;;;;;;5012656;28;20509;-55
2022/10/28 13:00:37;;;;;;;12.57;3.45;;;24.40;49.60;;;;;;5009438;28;20050;-55